Time;durP1;ratioP1;P1;durP2;ratioP2;P2;SDS_P1;SDS_P2;PMS_P1;PMS_P2;Temp;Humidity;BMP_temperature;BMP_pressure;BME280_temperature;BME280_humidity;BME280_pressure;Samples;Min_cycle;Max_cycle;Signal;HPM_P1;HPM_P2
2023/07/16 00:02:23;;;;;;;3.53;2.90;;;27.90;58.70;27.50;96254.00;;;;4978891;28;20226;-81
2023/07/16 00:04:50;;;;;;;2.27;2.07;;;27.90;59.30;27.30;96200.00;;;;4978234;28;20196;-81
2023/07/16 00:07:17;;;;;;;2.90;2.43;;;27.80;59.80;27.00;96106.00;;;;4976309;28;20298;-80
2023/07/16 00:09:45;;;;;;;2.17;1.97;;;27.60;61.10;26.60;96107.00;;;;4971995;28;20301;-80
2023/07/16 00:12:13;;;;;;;3.83;2.17;;;27.40;63.10;26.10;96082.00;;;;4971391;28;20208;-79
2023/07/16 00:14:40;;;;;;;2.30;2.20;;;27.10;64.10;25.70;96081.00;;;;4973839;28;20203;-79
2023/07/16 00:17:07;;;;;;;2.60;2.23;;;26.80;65.20;25.40;96085.00;;;;4973402;28;20225;-79
2023/07/16 00:19:34;;;;;;;2.93;2.10;;;26.50;65.90;25.20;96109.00;;;;4973897;28;20231;-80
2023/07/16 00:22:01;;;;;;;2.60;2.40;;;26.20;66.80;25.00;96113.00;;;;4974750;28;20248;-79
2023/07/16 00:24:28;;;;;;;2.93;2.33;;;26.00;68.00;24.90;96119.00;;;;4972116;28;20629;-79
2023/07/16 00:26:58;;;;;;;2.13;1.93;;;25.80;69.70;24.80;96123.00;;;;4972769;28;20211;-80
2023/07/16 00:29:25;;;;;;;3.40;2.17;;;25.60;70.20;24.70;96125.00;;;;4973294;28;20287;-80
2023/07/16 00:31:52;;;;;;;2.37;2.27;;;25.40;70.60;24.60;96140.00;;;;4976741;28;20290;-80
2023/07/16 00:34:19;;;;;;;2.43;2.10;;;25.30;71.50;24.50;96145.00;;;;4973464;28;20579;-80
2023/07/16 00:36:47;;;;;;;2.83;2.50;;;25.10;72.00;24.40;96139.00;;;;4977616;28;20219;-80
2023/07/16 00:39:14;;;;;;;2.87;2.67;;;25.00;72.80;24.30;96127.00;;;;4973511;28;20274;-79
2023/07/16 00:41:42;;;;;;;2.80;2.50;;;24.90;73.30;24.30;96119.00;;;;4973327;28;20799;-80
2023/07/16 00:44:10;;;;;;;2.47;2.27;;;24.80;73.30;24.20;96120.00;;;;4972173;28;20398;-80
2023/07/16 00:46:39;;;;;;;2.70;2.50;;;24.70;73.90;24.10;96137.00;;;;4973826;28;20612;-80
2023/07/16 00:49:06;;;;;;;3.17;2.50;;;24.70;74.40;24.10;96139.00;;;;4971095;28;20195;-80
2023/07/16 00:51:34;;;;;;;2.90;2.70;;;24.60;75.00;24.10;96137.00;;;;4972957;28;20295;-80
2023/07/16 00:54:03;;;;;;;2.47;2.27;;;24.60;75.50;24.10;96146.00;;;;4972099;28;20205;-80
2023/07/16 00:56:31;;;;;;;2.83;2.50;;;24.50;75.90;24.10;96155.00;;;;4971010;28;20323;-80
2023/07/16 00:58:58;;;;;;;2.20;2.10;;;24.50;76.10;24.10;96185.00;;;;4972580;28;20199;-79
2023/07/16 01:01:27;;;;;;;2.73;2.53;;;24.50;76.30;24.10;96246.00;;;;4980350;28;20199;-80
2023/07/16 01:03:55;;;;;;;3.93;2.53;;;24.50;76.80;24.10;96328.00;;;;4972665;28;20329;-80
2023/07/16 01:06:33;;;;;;;2.47;2.07;;;24.40;76.90;24.10;96386.00;;;;4983899;28;20302;-81
2023/07/16 01:09:09;;;;;;;2.70;2.47;;;24.40;77.90;24.10;96403.00;;;;4983077;28;20209;-81
2023/07/16 01:11:38;;;;;;;4.00;2.50;;;24.50;77.10;24.10;96383.00;;;;4990502;28;20222;-81
2023/07/16 01:14:08;;;;;;;3.67;2.50;;;24.50;76.80;24.10;96410.00;;;;4984458;28;20296;-80
2023/07/16 01:16:37;;;;;;;2.70;2.50;;;24.40;77.10;24.10;96426.00;;;;4982001;28;20206;-80
2023/07/16 01:19:05;;;;;;;2.57;2.37;;;24.40;77.00;24.20;96432.00;;;;4980008;28;20208;-80
2023/07/16 01:21:42;;;;;;;3.20;2.87;;;24.40;77.10;24.20;96433.00;;;;4983710;28;20199;-81
2023/07/16 01:24:45;;;;;;;2.80;2.60;;;24.40;77.50;24.20;96435.00;;;;4980086;28;20441;-81
2023/07/16 01:28:08;;;;;;;2.93;2.57;;;24.50;77.80;24.20;96429.00;;;;4973458;28;20569;-79
2023/07/16 01:30:42;;;;;;;2.53;2.33;;;24.50;78.00;24.20;96432.00;;;;4957234;28;20659;-79
2023/07/16 01:33:13;;;;;;;2.60;2.40;;;24.60;77.40;24.30;96432.00;;;;4983281;28;20654;-78
2023/07/16 01:35:44;;;;;;;3.83;2.60;;;24.60;77.50;24.30;96434.00;;;;4973842;28;20305;-79
2023/07/16 01:38:13;;;;;;;2.77;2.57;;;24.60;77.70;24.30;96432.00;;;;4973642;28;20199;-79
2023/07/16 01:40:40;;;;;;;2.73;2.53;;;24.60;77.70;24.30;96436.00;;;;4975511;28;20565;-79
2023/07/16 01:43:08;;;;;;;2.93;2.73;;;24.60;77.70;24.40;96438.00;;;;4969069;28;20314;-79
2023/07/16 01:45:38;;;;;;;2.47;2.37;;;24.60;77.60;24.40;96438.00;;;;4973311;28;20634;-79
2023/07/16 01:48:30;;;;;;;3.40;2.40;;;24.60;77.40;24.40;96446.00;;;;4973506;28;20665;-79
2023/07/16 01:50:56;;;;;;;2.40;2.17;;;24.70;78.90;24.40;96450.00;;;;4976274;28;20202;-79
2023/07/16 01:53:23;;;;;;;2.60;2.40;;;24.70;77.40;24.40;96440.00;;;;4973652;28;20724;-79
2023/07/16 01:55:51;;;;;;;2.90;2.60;;;24.70;77.20;24.40;96448.00;;;;4973734;28;20216;-79
2023/07/16 01:58:18;;;;;;;2.60;2.40;;;24.70;77.30;24.50;96446.00;;;;4973487;28;20724;-79
2023/07/16 02:00:48;;;;;;;2.73;2.50;;;24.70;77.20;24.50;96451.00;;;;4978130;28;20194;-79
2023/07/16 02:03:15;;;;;;;2.80;2.60;;;24.80;77.40;24.50;96453.00;;;;4972605;28;20215;-79
2023/07/16 02:05:42;;;;;;;2.50;2.40;;;24.80;77.10;24.50;96463.00;;;;4973805;28;20242;-79
2023/07/16 02:08:09;;;;;;;2.83;2.63;;;24.80;76.80;24.50;96458.00;;;;4974568;28;20209;-79
2023/07/16 02:10:36;;;;;;;2.67;2.47;;;24.80;76.70;24.40;96454.00;;;;4973399;28;20275;-79
2023/07/16 02:13:04;;;;;;;2.50;2.30;;;24.80;76.90;24.50;96462.00;;;;4973849;28;20597;-79
2023/07/16 02:15:31;;;;;;;2.87;2.67;;;24.70;76.70;24.40;96460.00;;;;4974193;28;20291;-79
2023/07/16 02:17:59;;;;;;;2.77;2.57;;;24.80;76.60;24.40;96464.00;;;;4973001;28;20192;-79
2023/07/16 02:20:28;;;;;;;4.30;2.60;;;24.80;76.70;24.40;96468.00;;;;4973212;28;20223;-79
2023/07/16 02:22:55;;;;;;;4.07;2.50;;;24.80;76.80;24.40;96474.00;;;;4976588;28;20197;-79
2023/07/16 02:25:22;;;;;;;7.37;2.77;;;24.80;76.80;24.40;96486.00;;;;4973746;28;20211;-79
2023/07/16 02:27:49;;;;;;;2.57;2.43;;;24.80;77.00;24.40;96483.00;;;;4974047;28;20195;-78
2023/07/16 02:30:17;;;;;;;2.60;2.40;;;24.70;77.10;24.40;96492.00;;;;4974005;28;20195;-78
2023/07/16 02:32:44;;;;;;;3.47;2.37;;;24.70;77.30;24.50;96483.00;;;;4973478;28;20720;-79
2023/07/16 02:35:14;;;;;;;2.83;2.60;;;24.80;77.50;24.50;96474.00;;;;4973782;28;20203;-79
2023/07/16 02:37:41;;;;;;;2.90;2.70;;;24.80;77.80;24.50;96484.00;;;;4975128;28;20219;-79
2023/07/16 02:40:08;;;;;;;2.67;2.43;;;24.80;77.60;24.50;96486.00;;;;4972082;28;20203;-79
2023/07/16 02:42:35;;;;;;;4.53;2.50;;;24.80;77.60;24.50;96494.00;;;;4971960;28;20195;-78
2023/07/16 02:45:03;;;;;;;2.53;2.30;;;24.80;78.30;24.50;96494.00;;;;4972098;28;20244;-79
2023/07/16 02:47:30;;;;;;;2.93;2.73;;;24.80;77.60;24.50;96507.00;;;;4964500;28;20225;-79
2023/07/16 02:49:58;;;;;;;2.93;2.70;;;24.90;77.70;24.50;96505.00;;;;4972628;28;20192;-79
2023/07/16 02:52:26;;;;;;;2.90;2.70;;;24.90;77.80;24.60;96503.00;;;;4971908;28;20196;-79
2023/07/16 02:54:53;;;;;;;3.00;2.70;;;24.90;77.80;24.60;96514.00;;;;4971694;28;20623;-79
2023/07/16 02:57:22;;;;;;;3.03;2.53;;;24.90;77.60;24.60;96515.00;;;;4963466;28;21954;-79
2023/07/16 02:59:49;;;;;;;3.00;2.70;;;24.90;77.50;24.60;96518.00;;;;4971927;28;20203;-79
2023/07/16 03:02:17;;;;;;;3.47;2.93;;;24.90;77.40;24.60;96535.00;;;;4972971;28;20191;-79
2023/07/16 03:04:44;;;;;;;2.67;2.47;;;24.90;77.30;24.60;96548.00;;;;4977071;28;20242;-79
2023/07/16 03:07:11;;;;;;;4.27;2.50;;;24.90;77.20;24.60;96547.00;;;;4973961;28;20242;-79
2023/07/16 03:09:40;;;;;;;2.70;2.50;;;24.90;77.40;24.60;96547.00;;;;4972548;28;20192;-79
2023/07/16 03:12:09;;;;;;;2.53;2.33;;;24.90;77.60;24.70;96550.00;;;;4972457;28;20326;-79
2023/07/16 03:14:36;;;;;;;2.43;2.23;;;25.00;77.50;24.60;96537.00;;;;4976613;28;20607;-79
2023/07/16 03:17:06;;;;;;;1.87;1.77;;;25.00;77.10;24.60;96544.00;;;;4971087;28;20219;-79
2023/07/16 03:19:33;;;;;;;1.93;1.83;;;25.00;76.90;24.60;96540.00;;;;4972773;28;20282;-79
2023/07/16 03:22:02;;;;;;;2.00;1.50;;;24.90;76.40;24.60;96542.00;;;;4977025;28;20199;-79
2023/07/16 03:24:29;;;;;;;1.47;1.37;;;24.90;76.40;24.60;96546.00;;;;4956196;28;20598;-79
2023/07/16 03:26:58;;;;;;;1.60;1.50;;;24.90;76.30;24.60;96548.00;;;;4972024;28;20218;-79
2023/07/16 03:29:25;;;;;;;1.60;1.50;;;24.90;77.00;24.60;96551.00;;;;4981546;28;20209;-80
2023/07/16 03:31:52;;;;;;;1.23;1.13;;;24.90;76.20;24.60;96543.00;;;;4995598;28;20286;-81
2023/07/16 03:34:19;;;;;;;1.20;1.20;;;24.90;76.40;24.60;96548.00;;;;4979072;28;20667;-81
2023/07/16 03:36:47;;;;;;;1.30;1.20;;;24.90;76.40;24.60;96554.00;;;;4975034;28;20218;-81
2023/07/16 03:39:14;;;;;;;1.00;1.00;;;24.90;76.30;24.60;96550.00;;;;4978824;28;20577;-81
2023/07/16 03:41:41;;;;;;;1.27;1.27;;;24.90;76.30;24.60;96551.00;;;;4977082;28;20203;-81
2023/07/16 03:44:10;;;;;;;1.10;1.10;;;24.90;77.10;24.60;96550.00;;;;4971331;28;20752;-81
2023/07/16 03:46:37;;;;;;;0.90;0.90;;;24.90;76.20;24.60;96546.00;;;;4977923;28;20207;-81
2023/07/16 03:49:08;;;;;;;1.00;0.90;;;24.90;76.10;24.60;96544.00;;;;4976397;28;20199;-79
2023/07/16 03:51:35;;;;;;;1.00;1.00;;;24.90;76.00;24.60;96551.00;;;;4976715;28;20203;-82
2023/07/16 03:54:02;;;;;;;1.20;1.13;;;24.90;76.10;24.50;96555.00;;;;4960764;28;20211;-81
2023/07/16 03:56:29;;;;;;;1.10;1.10;;;24.90;76.30;24.60;96560.00;;;;4980567;28;20278;-81
2023/07/16 03:58:57;;;;;;;0.83;0.83;;;24.90;76.00;24.60;96563.00;;;;4978308;28;20541;-81
2023/07/16 04:01:26;;;;;;;1.27;1.17;;;24.90;76.10;24.50;96561.00;;;;4975925;28;20201;-81
2023/07/16 04:03:53;;;;;;;0.90;0.80;;;24.90;76.30;24.60;96560.00;;;;4974256;28;20237;-81
2023/07/16 04:06:20;;;;;;;1.00;0.83;;;24.90;76.00;24.50;96560.00;;;;4971453;28;20227;-81
2023/07/16 04:08:48;;;;;;;0.73;0.73;;;24.90;76.00;24.50;96554.00;;;;4972520;28;20286;-79
2023/07/16 04:11:15;;;;;;;1.07;0.80;;;24.90;76.10;24.50;96569.00;;;;4956301;28;20210;-79
2023/07/16 04:13:42;;;;;;;0.80;0.80;;;24.90;76.40;24.50;96571.00;;;;4972907;28;20206;-78
2023/07/16 04:16:11;;;;;;;1.23;0.97;;;24.90;77.10;24.50;96570.00;;;;4972691;28;20249;-79
2023/07/16 04:18:40;;;;;;;0.97;0.97;;;24.90;76.60;24.50;96578.00;;;;4973223;28;20201;-79
2023/07/16 04:21:07;;;;;;;0.90;0.90;;;24.90;77.30;24.50;96576.00;;;;4972693;28;20278;-78
2023/07/16 04:23:35;;;;;;;0.90;0.90;;;24.90;76.50;24.50;96579.00;;;;4974422;28;20677;-79
2023/07/16 04:26:02;;;;;;;0.83;0.83;;;24.90;76.60;24.50;96579.00;;;;4973010;28;20226;-79
2023/07/16 04:28:29;;;;;;;0.83;0.83;;;24.90;76.70;24.50;96583.00;;;;4972120;28;20198;-78
2023/07/16 04:30:56;;;;;;;0.90;0.90;;;24.90;77.50;24.50;96583.00;;;;4973443;28;20283;-78
2023/07/16 04:33:24;;;;;;;3.20;1.20;;;24.90;76.80;24.50;96594.00;;;;4972870;28;20206;-79
2023/07/16 04:35:52;;;;;;;1.53;1.10;;;24.90;76.80;24.50;96591.00;;;;4984079;28;20223;-80
2023/07/16 04:38:19;;;;;;;1.30;1.20;;;24.90;77.00;24.50;96586.00;;;;4978657;28;20207;-80
2023/07/16 04:40:47;;;;;;;1.00;1.00;;;24.90;77.00;24.60;96581.00;;;;4976631;28;20202;-80
2023/07/16 04:43:14;;;;;;;0.90;0.90;;;24.90;77.10;24.60;96585.00;;;;4976646;28;20621;-80
2023/07/16 04:45:41;;;;;;;1.10;1.00;;;24.90;77.20;24.60;96594.00;;;;4975384;28;20223;-80
2023/07/16 04:48:08;;;;;;;1.17;0.97;;;25.00;77.20;24.60;96604.00;;;;4978117;28;20311;-80
2023/07/16 04:50:35;;;;;;;0.90;0.90;;;25.00;77.00;24.60;96609.00;;;;4981717;28;20200;-80
2023/07/16 04:53:04;;;;;;;1.40;1.20;;;25.00;77.00;24.60;96624.00;;;;4978946;28;20202;-79
2023/07/16 04:55:36;;;;;;;0.90;0.90;;;25.00;76.90;24.60;96615.00;;;;4979809;28;20206;-80
2023/07/16 04:58:03;;;;;;;1.30;1.20;;;25.00;77.00;24.60;96622.00;;;;4979374;28;20224;-80
2023/07/16 05:00:32;;;;;;;1.23;1.13;;;25.00;77.90;24.60;96616.00;;;;4977504;28;20214;-80
2023/07/16 05:03:00;;;;;;;1.10;1.10;;;25.00;77.20;24.60;96632.00;;;;4974126;28;20239;-79
2023/07/16 05:05:28;;;;;;;1.37;1.03;;;25.00;77.30;24.60;96636.00;;;;4980795;28;20232;-79
2023/07/16 05:07:55;;;;;;;0.80;0.80;;;25.00;77.40;24.70;96646.00;;;;4979873;28;20195;-80
2023/07/16 05:10:24;;;;;;;1.43;1.30;;;25.00;77.60;24.70;96656.00;;;;4976183;28;20203;-79
2023/07/16 05:12:52;;;;;;;1.07;0.97;;;25.00;77.80;24.70;96652.00;;;;4974877;28;20204;-79
2023/07/16 05:15:19;;;;;;;1.83;0.97;;;25.00;77.90;24.60;96659.00;;;;4973600;28;20234;-78
2023/07/16 05:17:47;;;;;;;1.63;1.10;;;25.00;78.00;24.60;96657.00;;;;4975214;28;20237;-79
2023/07/16 05:20:14;;;;;;;1.00;1.00;;;25.00;78.00;24.60;96663.00;;;;4976382;28;20200;-79
2023/07/16 05:22:41;;;;;;;1.27;1.20;;;25.00;78.90;24.60;96656.00;;;;4979342;28;20201;-79
2023/07/16 05:25:09;;;;;;;1.10;1.10;;;25.00;78.20;24.60;96662.00;;;;4975575;28;20312;-79
2023/07/16 05:27:39;;;;;;;1.03;1.00;;;25.00;78.20;24.50;96667.00;;;;4974523;28;20227;-79
2023/07/16 05:30:09;;;;;;;1.33;1.13;;;25.00;78.20;24.50;96668.00;;;;4974514;28;20196;-79
2023/07/16 05:32:37;;;;;;;1.33;1.10;;;24.90;78.00;24.50;96658.00;;;;4960396;28;20623;-79
2023/07/16 05:35:05;;;;;;;1.00;0.90;;;24.90;77.60;24.50;96657.00;;;;4973097;28;20287;-79
2023/07/16 05:37:32;;;;;;;1.07;1.07;;;24.90;77.80;24.50;96653.00;;;;4972429;28;20224;-79
2023/07/16 05:39:59;;;;;;;1.10;1.00;;;24.90;78.10;24.40;96658.00;;;;4971833;28;20631;-79
2023/07/16 05:42:27;;;;;;;0.90;0.90;;;24.90;78.30;24.40;96660.00;;;;4973269;28;20220;-79
2023/07/16 05:44:55;;;;;;;1.00;1.00;;;24.90;78.50;24.40;96660.00;;;;4971967;28;20218;-79
2023/07/16 05:47:23;;;;;;;1.27;1.17;;;24.90;78.70;24.50;96660.00;;;;4966423;28;20215;-79
2023/07/16 05:49:50;;;;;;;0.70;0.70;;;24.90;78.50;24.40;96656.00;;;;4976498;28;20593;-79
2023/07/16 05:52:19;;;;;;;1.00;0.90;;;24.90;78.60;24.40;96667.00;;;;4974161;28;20203;-78
2023/07/16 05:54:46;;;;;;;0.90;0.90;;;24.90;78.60;24.40;96662.00;;;;4964867;28;20736;-79
2023/07/16 05:57:13;;;;;;;1.10;1.00;;;24.90;78.60;24.40;96670.00;;;;4978240;28;20223;-79
2023/07/16 05:59:40;;;;;;;0.90;0.90;;;24.90;78.60;24.50;96673.00;;;;4975859;28;20202;-79
2023/07/16 06:02:09;;;;;;;1.00;0.90;;;24.90;78.60;24.50;96681.00;;;;4985587;28;20294;-79
2023/07/16 06:04:37;;;;;;;1.03;0.93;;;24.90;78.80;24.50;96674.00;;;;4967035;28;20601;-79
2023/07/16 06:07:05;;;;;;;1.40;0.80;;;24.90;78.70;24.50;96663.00;;;;4974330;28;20222;-79
2023/07/16 06:09:32;;;;;;;0.80;0.80;;;24.90;77.80;24.50;96670.00;;;;4957551;28;20707;-79
2023/07/16 06:11:59;;;;;;;1.10;1.00;;;24.90;77.90;24.50;96676.00;;;;4974790;28;20198;-79
2023/07/16 06:14:26;;;;;;;0.90;0.90;;;24.90;78.20;24.50;96686.00;;;;4974324;28;20207;-79
2023/07/16 06:16:53;;;;;;;0.73;0.73;;;24.90;78.20;24.50;96685.00;;;;4974318;28;20314;-79
2023/07/16 06:19:22;;;;;;;1.07;0.90;;;24.90;78.30;24.50;96689.00;;;;4974918;28;20649;-79
2023/07/16 06:21:49;;;;;;;2.23;0.90;;;24.90;78.50;24.50;96686.00;;;;4974092;28;20203;-79
2023/07/16 06:24:16;;;;;;;1.30;1.03;;;24.90;78.60;24.60;96687.00;;;;4977669;28;20209;-79
2023/07/16 06:26:43;;;;;;;0.90;0.90;;;24.90;78.50;24.60;96695.00;;;;4976376;28;20233;-79
2023/07/16 06:29:10;;;;;;;1.47;1.00;;;24.90;78.80;24.60;96690.00;;;;4971301;28;20195;-79
2023/07/16 06:31:37;;;;;;;0.90;0.90;;;25.00;78.20;24.70;96691.00;;;;4972313;28;20855;-79
2023/07/16 06:34:04;;;;;;;1.20;1.10;;;25.00;78.20;24.70;96703.00;;;;4971889;28;20203;-79
2023/07/16 06:36:33;;;;;;;1.13;1.00;;;25.00;78.20;24.70;96701.00;;;;4973920;28;20212;-80
2023/07/16 06:39:00;;;;;;;1.00;0.93;;;25.10;78.90;24.80;96708.00;;;;4984640;28;20756;-80
2023/07/16 06:41:28;;;;;;;1.17;1.07;;;25.10;78.10;24.80;96716.00;;;;4979134;28;20195;-81
2023/07/16 06:43:55;;;;;;;1.80;0.97;;;25.10;78.00;24.80;96715.00;;;;4980376;28;20235;-80
2023/07/16 06:46:23;;;;;;;0.80;0.80;;;25.20;77.80;24.80;96715.00;;;;4979000;28;20242;-80
2023/07/16 06:48:50;;;;;;;0.87;0.87;;;25.20;77.50;24.80;96711.00;;;;4981035;28;20201;-80
2023/07/16 06:51:17;;;;;;;1.10;1.00;;;25.20;77.10;24.90;96717.00;;;;4982583;28;20215;-79
2023/07/16 06:53:45;;;;;;;1.23;0.70;;;25.20;77.00;24.80;96716.00;;;;4984997;28;20195;-79
2023/07/16 06:56:13;;;;;;;0.70;0.70;;;25.20;76.90;24.80;96718.00;;;;4979937;28;20298;-80
2023/07/16 06:58:40;;;;;;;1.20;0.90;;;25.20;77.00;24.90;96713.00;;;;4984110;28;20223;-80
2023/07/16 07:01:07;;;;;;;1.43;0.90;;;25.20;77.00;24.90;96714.00;;;;4984989;28;20218;-80
2023/07/16 07:03:34;;;;;;;0.90;0.90;;;25.30;77.20;24.90;96716.00;;;;4988354;28;20193;-80
2023/07/16 07:06:04;;;;;;;2.10;1.00;;;25.30;77.20;25.00;96710.00;;;;4983053;28;20692;-80
2023/07/16 07:08:32;;;;;;;1.00;1.00;;;25.30;77.40;25.00;96709.00;;;;4981410;28;20247;-80
2023/07/16 07:11:00;;;;;;;0.97;0.97;;;25.30;77.40;25.10;96707.00;;;;4955097;28;20630;-80
2023/07/16 07:13:29;;;;;;;1.00;0.90;;;25.40;77.20;25.10;96708.00;;;;4984896;28;20199;-80
2023/07/16 07:15:56;;;;;;;0.97;0.97;;;25.40;77.00;25.20;96712.00;;;;4982318;28;21048;-80
2023/07/16 07:18:24;;;;;;;0.80;0.80;;;25.40;76.80;25.20;96714.00;;;;4980857;28;20198;-79
2023/07/16 07:20:51;;;;;;;1.07;0.90;;;25.50;77.20;25.30;96718.00;;;;4981982;28;20322;-80
2023/07/16 07:23:19;;;;;;;1.00;0.70;;;25.60;77.20;25.40;96715.00;;;;4982843;28;20241;-79
2023/07/16 07:25:51;;;;;;;1.23;1.00;;;25.60;76.90;25.40;96713.00;;;;4976397;28;20303;-80
2023/07/16 07:28:21;;;;;;;1.70;0.80;;;25.70;76.80;25.50;96715.00;;;;4982958;28;20195;-80
2023/07/16 07:30:48;;;;;;;0.87;0.87;;;25.70;76.70;25.50;96714.00;;;;4984014;28;21866;-80
2023/07/16 07:33:17;;;;;;;0.87;0.87;;;25.80;76.70;25.50;96721.00;;;;4980071;28;20206;-80
2023/07/16 07:35:44;;;;;;;1.00;0.90;;;25.80;76.30;25.60;96720.00;;;;4979507;28;20253;-81
2023/07/16 07:38:12;;;;;;;1.13;1.03;;;25.90;76.30;25.60;96722.00;;;;4978580;28;20556;-81
2023/07/16 07:40:39;;;;;;;1.03;1.00;;;25.90;76.40;25.70;96722.00;;;;4963218;28;20653;-80
2023/07/16 07:43:06;;;;;;;1.10;1.10;;;26.00;76.60;25.70;96722.00;;;;4981794;28;20207;-80
2023/07/16 07:45:35;;;;;;;1.23;1.13;;;26.00;76.00;25.70;96718.00;;;;4974978;28;20223;-80
2023/07/16 07:48:02;;;;;;;1.00;1.00;;;26.00;76.10;25.70;96725.00;;;;4977873;28;20203;-81
2023/07/16 07:50:29;;;;;;;1.40;1.00;;;26.00;76.20;25.80;96720.00;;;;4977916;28;20202;-81
2023/07/16 07:52:56;;;;;;;1.10;0.97;;;26.00;76.20;25.80;96718.00;;;;4985374;28;20203;-79
2023/07/16 07:55:24;;;;;;;1.03;0.87;;;26.10;76.20;25.80;96715.00;;;;4980988;28;20210;-81
2023/07/16 07:57:51;;;;;;;1.90;1.10;;;26.10;75.50;25.80;96717.00;;;;4978947;28;20191;-80
2023/07/16 08:00:18;;;;;;;1.57;1.20;;;26.10;75.00;25.80;96710.00;;;;4978565;28;20230;-81
2023/07/16 08:02:47;;;;;;;1.20;1.00;;;26.20;75.10;25.80;96716.00;;;;4985208;28;20222;-81
2023/07/16 08:05:14;;;;;;;1.73;1.40;;;26.20;75.50;25.90;96723.00;;;;4973800;28;20274;-81
2023/07/16 08:07:42;;;;;;;1.20;1.00;;;26.20;75.10;25.90;96719.00;;;;4978072;28;20281;-80
2023/07/16 08:10:10;;;;;;;1.20;1.10;;;26.20;74.60;25.90;96718.00;;;;4981380;28;20259;-81
2023/07/16 08:12:37;;;;;;;0.87;0.87;;;26.30;74.70;25.90;96721.00;;;;4981567;28;20272;-82
2023/07/16 08:15:07;;;;;;;1.37;1.10;;;26.30;74.10;25.90;96722.00;;;;4980616;28;20298;-82
2023/07/16 08:17:34;;;;;;;1.00;0.90;;;26.30;73.70;25.90;96715.00;;;;4981617;28;20235;-81
2023/07/16 08:20:03;;;;;;;4.03;1.40;;;26.30;73.10;25.90;96706.00;;;;4973796;28;20683;-82
2023/07/16 08:22:31;;;;;;;1.67;1.00;;;26.30;72.90;25.90;96705.00;;;;4980651;28;20195;-80
2023/07/16 08:24:58;;;;;;;1.37;0.90;;;26.30;72.70;25.90;96694.00;;;;4982640;28;20676;-82
2023/07/16 08:27:25;;;;;;;0.97;0.87;;;26.30;73.00;25.90;96704.00;;;;4980632;28;20752;-82
2023/07/16 08:29:53;;;;;;;1.10;1.00;;;26.30;73.10;25.90;96694.00;;;;4984760;28;20274;-83
2023/07/16 08:32:21;;;;;;;1.20;1.03;;;26.30;72.80;25.90;96694.00;;;;4985096;28;20188;-83
2023/07/16 08:34:48;;;;;;;0.93;0.80;;;26.30;72.40;26.00;96693.00;;;;4981784;28;20241;-82
2023/07/16 08:37:17;;;;;;;1.83;0.90;;;26.30;72.30;26.00;96688.00;;;;4983794;28;20227;-82
2023/07/16 08:39:44;;;;;;;1.00;1.00;;;26.30;71.70;26.00;96688.00;;;;4984764;28;20665;-79
2023/07/16 08:42:14;;;;;;;2.13;1.00;;;26.40;72.10;26.10;96687.00;;;;4982371;28;20211;-79
2023/07/16 08:44:41;;;;;;;0.97;0.90;;;26.40;70.80;26.10;96694.00;;;;4983208;28;20223;-81
2023/07/16 08:47:08;;;;;;;1.03;0.90;;;26.40;71.30;26.20;96691.00;;;;4988826;28;20230;-82
2023/07/16 08:49:36;;;;;;;1.10;1.10;;;26.50;70.80;26.20;96690.00;;;;4992522;28;20200;-82
2023/07/16 08:52:07;;;;;;;1.27;1.00;;;26.50;70.30;26.30;96692.00;;;;4983856;28;20211;-81
2023/07/16 08:54:37;;;;;;;0.90;0.90;;;26.60;70.60;26.30;96678.00;;;;4981803;28;20204;-82
2023/07/16 08:57:06;;;;;;;1.00;1.00;;;26.60;71.10;26.30;96669.00;;;;4983047;28;20219;-81
2023/07/16 08:59:33;;;;;;;0.87;0.87;;;26.60;71.50;26.40;96664.00;;;;4983000;28;20267;-82
2023/07/16 09:02:00;;;;;;;1.00;0.90;;;26.70;71.50;26.50;96664.00;;;;4980816;28;20238;-82
2023/07/16 09:04:29;;;;;;;1.40;1.30;;;26.70;71.70;26.60;96665.00;;;;4981773;28;20226;-81
2023/07/16 09:06:56;;;;;;;1.07;0.90;;;26.80;72.00;26.70;96662.00;;;;4980759;28;20235;-83
2023/07/16 09:09:24;;;;;;;1.60;1.00;;;26.90;72.40;26.90;96663.00;;;;4985596;28;20295;-83
2023/07/16 09:11:53;;;;;;;1.53;1.03;;;27.00;71.50;27.00;96671.00;;;;4983426;28;20198;-82
2023/07/16 09:14:22;;;;;;;1.40;1.30;;;27.20;71.40;27.10;96668.00;;;;4982557;28;20230;-83
2023/07/16 09:16:50;;;;;;;1.00;1.00;;;27.30;71.20;27.30;96672.00;;;;4979873;28;20226;-83
2023/07/16 09:19:18;;;;;;;1.27;1.17;;;27.40;70.00;27.40;96675.00;;;;4981013;28;20206;-81
2023/07/16 09:21:48;;;;;;;0.98;0.98;;;27.60;69.40;27.50;96668.00;;;;4980635;28;20192;-83
2023/07/16 09:24:15;;;;;;;1.25;1.15;;;27.70;69.60;27.60;96679.00;;;;4979771;28;20219;-83
2023/07/16 09:26:50;;;;;;;2.95;1.20;;;27.80;68.50;27.70;96685.00;;;;4979816;28;20726;-82
2023/07/16 09:29:19;;;;;;;1.58;1.27;;;28.00;67.30;27.80;96680.00;;;;4981582;28;20207;-82
2023/07/16 09:31:57;;;;;;;2.53;1.10;;;28.00;67.00;27.90;96675.00;;;;4984896;28;20191;-82
2023/07/16 09:34:27;;;;;;;1.13;1.00;;;28.10;66.70;28.00;96681.00;;;;4966052;28;20217;-82
2023/07/16 09:36:55;;;;;;;1.15;1.05;;;28.20;67.30;28.00;96675.00;;;;4980482;28;20279;-83
2023/07/16 09:39:23;;;;;;;1.92;1.20;;;28.30;66.40;28.10;96668.00;;;;4971776;28;20234;-82
2023/07/16 09:41:51;;;;;;;1.30;1.15;;;28.30;65.70;28.20;96669.00;;;;4990236;28;20222;-83
2023/07/16 09:44:21;;;;;;;0.90;0.90;;;28.40;65.50;28.30;96670.00;;;;4986324;28;20652;-83
2023/07/16 09:46:48;;;;;;;1.30;1.20;;;28.50;66.20;28.50;96672.00;;;;4985660;28;20223;-83
2023/07/16 09:49:17;;;;;;;0.90;0.90;;;28.70;67.00;28.60;96666.00;;;;4986806;28;20242;-84
2023/07/16 09:51:46;;;;;;;1.00;0.90;;;28.80;66.10;28.70;96669.00;;;;4982516;28;20188;-84
2023/07/16 09:54:15;;;;;;;1.60;1.50;;;29.00;65.20;28.80;96664.00;;;;4974190;28;20281;-84
2023/07/16 09:56:48;;;;;;;0.80;0.80;;;29.10;63.80;28.90;96660.00;;;;4974000;28;20290;-85
2023/07/16 09:59:21;;;;;;;0.88;0.88;;;29.10;64.40;29.00;96665.00;;;;4971287;28;20203;-85
2023/07/16 10:01:49;;;;;;;1.33;1.20;;;29.30;64.50;29.10;96662.00;;;;4973728;28;20199;-85
2023/07/16 10:04:22;;;;;;;1.10;1.00;;;29.50;64.40;29.10;96647.00;;;;4974090;28;20222;-85
2023/07/16 10:06:54;;;;;;;0.93;0.82;;;29.50;63.00;29.20;96649.00;;;;4972849;28;20254;-85
2023/07/16 10:09:40;;;;;;;1.48;0.90;;;29.60;63.20;29.30;96650.00;;;;4973438;28;20357;-85
2023/07/16 10:12:15;;;;;;;1.00;1.00;;;29.70;61.80;29.40;96637.00;;;;4977632;28;20625;-85
2023/07/16 10:14:47;;;;;;;0.98;0.98;;;29.80;61.90;29.50;96637.00;;;;4973719;28;20229;-85
2023/07/16 10:17:20;;;;;;;0.77;0.77;;;29.90;61.90;29.60;96638.00;;;;4975461;28;20227;-84
2023/07/16 10:19:52;;;;;;;1.75;1.00;;;30.00;61.50;29.70;96647.00;;;;4981201;28;20617;-85
2023/07/16 10:22:32;;;;;;;0.90;0.90;;;30.10;61.30;29.70;96648.00;;;;4975374;28;20195;-84
2023/07/16 10:25:00;;;;;;;0.80;0.80;;;30.30;61.10;29.80;96644.00;;;;4975241;28;20187;-84
2023/07/16 10:27:32;;;;;;;1.10;1.00;;;30.30;61.10;29.80;96647.00;;;;4974655;28;20771;-85
2023/07/16 10:30:04;;;;;;;0.90;0.90;;;30.40;59.20;29.80;96645.00;;;;4974759;28;20251;-84
2023/07/16 10:32:34;;;;;;;1.08;0.98;;;30.40;59.50;29.80;96649.00;;;;4979445;28;20854;-85
2023/07/16 10:35:02;;;;;;;1.02;1.00;;;30.40;59.40;29.80;96652.00;;;;4974681;28;20195;-84
2023/07/16 10:37:29;;;;;;;1.02;1.00;;;30.40;59.40;29.80;96644.00;;;;4982186;28;20230;-84
2023/07/16 10:40:00;;;;;;;1.15;1.05;;;30.30;59.50;29.80;96648.00;;;;4974453;28;20253;-84
2023/07/16 10:42:29;;;;;;;1.20;1.15;;;30.30;59.40;29.80;96655.00;;;;4982422;28;20582;-85
2023/07/16 10:45:00;;;;;;;1.05;1.05;;;30.30;59.30;29.80;96646.00;;;;4974345;28;20199;-85
2023/07/16 10:47:32;;;;;;;1.20;1.10;;;30.20;59.10;29.70;96651.00;;;;4974055;28;20601;-84
2023/07/16 10:50:01;;;;;;;5.30;3.42;;;30.20;59.50;29.70;96645.00;;;;4972336;28;20209;-85
2023/07/16 10:52:43;;;;;;;4.93;3.03;;;30.20;60.60;29.70;96643.00;;;;5138214;27;20550;-85
2023/07/16 10:55:10;;;;;;;2.00;1.80;;;30.10;60.00;29.70;96642.00;;;;5120973;28;20212;-85
2023/07/16 10:57:37;;;;;;;1.42;1.30;;;30.10;59.50;29.70;96641.00;;;;5093058;28;20307;-85
2023/07/16 11:00:05;;;;;;;1.52;1.20;;;30.10;59.60;29.80;96636.00;;;;5083968;28;20192;-86
2023/07/16 11:02:32;;;;;;;1.45;1.13;;;30.10;59.50;29.80;96640.00;;;;5088301;28;20656;-85